createdAt,value
2018-07-12T00:00:55.649Z,4.50
2018-07-12T00:03:24.500Z,4.27
2018-07-12T00:05:53.368Z,4.50
2018-07-12T00:08:22.180Z,4.40
2018-07-12T00:10:51.009Z,4.10
2018-07-12T00:13:19.886Z,4.37
2018-07-12T00:15:48.854Z,4.90
2018-07-12T00:18:17.732Z,3.90
2018-07-12T00:20:46.936Z,4.13
2018-07-12T00:23:15.732Z,4.67
2018-07-12T00:25:44.844Z,4.67
2018-07-12T00:28:13.728Z,4.70
2018-07-12T00:30:42.604Z,4.77
2018-07-12T00:33:11.408Z,4.40
2018-07-12T00:35:40.281Z,4.37
2018-07-12T00:38:09.221Z,4.10
2018-07-12T00:40:38.140Z,4.43
2018-07-12T00:43:06.972Z,4.37
2018-07-12T00:45:35.790Z,4.33
2018-07-12T00:48:04.696Z,4.67
2018-07-12T00:50:33.575Z,4.30
2018-07-12T00:53:02.477Z,4.33
2018-07-12T00:55:31.420Z,4.53
2018-07-12T00:58:00.288Z,4.63
2018-07-12T01:00:29.132Z,4.20
2018-07-12T01:02:58.044Z,4.60
2018-07-12T01:05:26.896Z,4.47
2018-07-12T01:07:55.776Z,4.60
2018-07-12T01:10:24.632Z,4.63
2018-07-12T01:12:53.528Z,4.30
2018-07-12T01:15:22.432Z,4.73
2018-07-12T01:17:51.301Z,4.30
2018-07-12T01:20:20.268Z,4.87
2018-07-12T01:22:49.152Z,4.70
2018-07-12T01:25:18.100Z,4.40
2018-07-12T01:27:47.235Z,4.63
2018-07-12T01:30:15.939Z,4.90
2018-07-12T01:32:44.821Z,4.43
2018-07-12T01:35:13.719Z,4.00
2018-07-12T01:37:42.632Z,5.33
2018-07-12T01:40:11.568Z,4.97
2018-07-12T01:42:40.432Z,5.30
2018-07-12T01:45:09.349Z,5.20
2018-07-12T01:47:38.240Z,4.97
2018-07-12T01:50:07.084Z,4.47
2018-07-12T01:52:35.986Z,4.90
2018-07-12T01:55:05.128Z,4.60
2018-07-12T01:57:33.980Z,5.03
2018-07-12T02:00:03.101Z,5.10
2018-07-12T02:02:32.224Z,5.33
2018-07-12T02:05:00.901Z,4.77
2018-07-12T02:07:29.776Z,5.60
2018-07-12T02:09:58.747Z,5.20
2018-07-12T02:12:27.655Z,5.17
2018-07-12T02:14:56.579Z,5.07
2018-07-12T02:17:25.548Z,5.00
2018-07-12T02:19:54.378Z,5.50
2018-07-12T02:22:23.472Z,5.77
2018-07-12T02:24:52.334Z,5.57
2018-07-12T02:27:21.239Z,5.50
2018-07-12T02:29:50.411Z,5.93
2018-07-12T02:32:19.300Z,4.90
2018-07-12T02:34:48.230Z,5.37
2018-07-12T02:37:17.062Z,5.63
2018-07-12T02:39:45.932Z,5.10
2018-07-12T02:42:14.852Z,5.50
2018-07-12T02:44:43.785Z,6.30
2018-07-12T02:47:12.745Z,6.03
2018-07-12T02:49:41.572Z,6.03
2018-07-12T02:52:10.447Z,5.90
2018-07-12T02:54:39.350Z,5.80
2018-07-12T02:57:08.264Z,5.83
2018-07-12T02:59:37.148Z,6.30
2018-07-12T03:02:06.068Z,6.40
2018-07-12T03:04:34.985Z,6.13
2018-07-12T03:07:04.047Z,6.20
2018-07-12T03:09:32.920Z,5.83
2018-07-12T03:12:01.760Z,6.50
2018-07-12T03:14:30.581Z,5.33
2018-07-12T03:16:59.540Z,5.30
2018-07-12T03:19:28.499Z,6.03
2018-07-12T03:21:57.372Z,6.07
2018-07-12T03:24:26.270Z,6.50
2018-07-12T03:26:55.091Z,5.73
2018-07-12T03:29:23.923Z,6.17
2018-07-12T03:31:52.768Z,5.50
2018-07-12T03:34:21.668Z,5.83
2018-07-12T03:36:50.631Z,6.30
2018-07-12T03:39:19.495Z,6.50
2018-07-12T03:41:48.423Z,6.37
2018-07-12T03:44:17.298Z,5.97
2018-07-12T03:46:46.109Z,5.90
2018-07-12T03:49:14.988Z,6.77
2018-07-12T03:51:43.883Z,5.70
2018-07-12T03:54:12.928Z,6.30
2018-07-12T03:56:41.842Z,6.50
2018-07-12T03:59:10.982Z,6.50
2018-07-12T04:01:39.825Z,6.13
2018-07-12T04:04:08.716Z,6.13
2018-07-12T04:06:37.652Z,6.33
2018-07-12T04:09:06.936Z,5.70
2018-07-12T04:11:35.812Z,6.43
2018-07-12T04:14:05.046Z,6.63
2018-07-12T04:16:33.688Z,6.60
2018-07-12T04:19:02.556Z,6.00
2018-07-12T04:21:31.459Z,6.27
2018-07-12T04:24:00.336Z,6.23
2018-07-12T04:26:29.196Z,5.93
2018-07-12T04:28:58.404Z,6.30
2018-07-12T04:31:27.300Z,6.33
2018-07-12T04:33:56.188Z,5.93
2018-07-12T04:36:25.087Z,5.30
2018-07-12T04:38:54.083Z,6.13
2018-07-12T04:41:22.984Z,5.97
2018-07-12T04:43:51.875Z,5.43
2018-07-12T04:46:20.792Z,6.10
2018-07-12T04:48:49.676Z,6.03
2018-07-12T04:51:18.622Z,5.90
2018-07-12T04:53:47.539Z,5.50
2018-07-12T04:56:16.424Z,5.70
2018-07-12T04:58:45.307Z,4.87
2018-07-12T05:01:14.180Z,4.73
2018-07-12T05:03:43.116Z,5.10
2018-07-12T05:06:12.055Z,5.00
2018-07-12T05:08:40.959Z,4.30
2018-07-12T05:11:09.888Z,4.57
2018-07-12T05:13:38.791Z,5.00
2018-07-12T05:16:07.705Z,4.90
2018-07-12T05:18:36.592Z,4.60
2018-07-12T05:21:05.545Z,4.37
2018-07-12T05:23:34.412Z,5.13
2018-07-12T05:26:03.302Z,4.83
2018-07-12T05:28:32.285Z,4.27
2018-07-12T05:31:01.161Z,4.67
2018-07-12T05:33:30.093Z,4.60
2018-07-12T05:36:00.208Z,3.87
2018-07-12T05:38:30.316Z,4.33
2018-07-12T05:41:00.454Z,5.00
2018-07-12T05:43:30.590Z,4.70
2018-07-12T05:46:00.659Z,5.20
2018-07-12T05:48:30.805Z,4.10
2018-07-12T05:51:00.913Z,4.50
2018-07-12T05:53:30.964Z,4.50
2018-07-12T05:56:01.110Z,4.37
2018-07-12T05:58:31.124Z,4.17
2018-07-12T06:01:01.235Z,4.37
2018-07-12T06:03:31.331Z,4.57
2018-07-12T06:06:01.445Z,4.70
2018-07-12T06:08:31.628Z,4.77
2018-07-12T06:11:01.705Z,3.97
2018-07-12T06:13:31.854Z,4.53
2018-07-12T06:16:02.001Z,5.10
2018-07-12T06:18:32.156Z,4.70
2018-07-12T06:21:02.237Z,4.50
2018-07-12T06:23:32.351Z,4.40
2018-07-12T06:26:02.466Z,4.63
2018-07-12T06:28:32.572Z,4.47
2018-07-12T06:31:02.673Z,4.37
2018-07-12T06:33:32.904Z,4.80
2018-07-12T06:36:03.032Z,4.53
2018-07-12T06:38:32.843Z,5.07
2018-07-12T06:41:02.660Z,4.70
2018-07-12T06:43:32.864Z,4.10
2018-07-12T06:46:03.080Z,4.20
2018-07-12T06:48:33.180Z,3.93
2018-07-12T06:51:03.303Z,3.97
2018-07-12T06:53:33.620Z,4.50
2018-07-12T06:56:03.664Z,4.30
2018-07-12T06:58:33.846Z,3.93
2018-07-12T07:01:04.036Z,4.20
2018-07-12T07:03:34.226Z,4.10
2018-07-12T07:06:04.324Z,4.07
2018-07-12T07:08:34.352Z,3.53
2018-07-12T07:11:04.456Z,3.87
2018-07-12T07:13:34.553Z,3.83
2018-07-12T07:16:04.673Z,4.17
2018-07-12T07:18:34.776Z,3.90
2018-07-12T07:21:05.064Z,3.77
2018-07-12T07:23:35.216Z,3.67
2018-07-12T07:26:05.345Z,4.00
2018-07-12T07:28:35.448Z,4.10
2018-07-12T07:31:05.788Z,4.00
2018-07-12T07:33:35.924Z,3.70
2018-07-12T07:36:05.981Z,4.00
2018-07-12T07:38:36.078Z,3.77
2018-07-12T07:41:06.724Z,3.90
2018-07-12T07:43:36.816Z,4.33
2018-07-12T07:46:07.008Z,3.93
2018-07-12T07:48:37.063Z,4.03
2018-07-12T07:51:07.466Z,3.33
2018-07-12T07:53:37.740Z,3.67
2018-07-12T07:56:08.033Z,3.50
2018-07-12T07:58:38.198Z,3.33
2018-07-12T08:01:08.295Z,3.70
2018-07-12T08:03:38.400Z,3.60
2018-07-12T08:06:08.512Z,3.40
2018-07-12T08:08:38.616Z,3.60
2018-07-12T08:11:08.743Z,3.53
2018-07-12T08:13:38.507Z,4.10
2018-07-12T08:16:08.301Z,3.80
2018-07-12T08:18:38.436Z,3.43
2018-07-12T08:21:13.904Z,4.00
2018-07-12T08:23:44.728Z,4.10
2018-07-12T08:26:14.743Z,3.67
2018-07-12T08:28:45.809Z,3.67
2018-07-12T08:31:16.086Z,4.20
2018-07-12T08:33:46.260Z,3.57
2018-07-12T08:36:16.399Z,4.07
2018-07-12T08:38:46.545Z,4.00
2018-07-12T08:41:16.721Z,3.87
2018-07-12T08:43:46.876Z,3.63
2018-07-12T08:46:16.926Z,3.80
2018-07-12T08:48:47.030Z,4.10
2018-07-12T08:51:17.175Z,3.87
2018-07-12T08:53:47.329Z,4.20
2018-07-12T08:56:17.276Z,4.00
2018-07-12T08:58:47.638Z,3.97
2018-07-12T09:01:17.828Z,4.00
2018-07-12T09:03:47.978Z,4.03
2018-07-12T09:06:18.064Z,4.63
2018-07-12T09:08:48.431Z,4.10
2018-07-12T09:11:18.622Z,3.90
2018-07-12T09:13:48.868Z,3.90
2018-07-12T09:16:18.968Z,4.03
2018-07-12T09:18:49.157Z,3.97
2018-07-12T09:21:19.368Z,3.77
2018-07-12T09:23:49.500Z,4.60
2018-07-12T09:26:19.612Z,4.27
2018-07-12T09:28:49.975Z,4.10
2018-07-12T09:31:19.810Z,3.80
2018-07-12T09:33:49.740Z,3.97
2018-07-12T09:36:19.814Z,4.00
2018-07-12T09:38:51.648Z,3.87
2018-07-12T09:41:22.688Z,4.57
2018-07-12T09:43:53.368Z,4.10
2018-07-12T09:46:23.465Z,3.97
2018-07-12T09:48:53.544Z,3.73
2018-07-12T09:51:23.714Z,3.40
2018-07-12T09:53:53.816Z,3.70
2018-07-12T09:56:33.833Z,3.67
2018-07-12T09:59:03.703Z,3.70
2018-07-12T10:01:38.720Z,3.43
2018-07-12T10:04:08.864Z,3.40
2018-07-12T10:06:44.278Z,3.00
2018-07-12T10:09:19.646Z,2.97
2018-07-12T10:11:55.000Z,3.20
2018-07-12T10:14:30.404Z,3.60
2018-07-12T10:17:05.752Z,2.70
2018-07-12T10:19:35.882Z,3.00
2018-07-12T10:22:06.024Z,2.93
2018-07-12T10:24:36.200Z,2.77
2018-07-12T10:27:06.528Z,2.77
2018-07-12T10:29:36.644Z,2.80
2018-07-12T10:32:06.800Z,2.87
2018-07-12T10:34:36.913Z,2.73
2018-07-12T10:37:07.040Z,3.23
2018-07-12T10:39:37.156Z,2.60
2018-07-12T10:42:07.336Z,2.50
2018-07-12T10:44:37.490Z,2.53
2018-07-12T10:47:07.521Z,2.90
2018-07-12T10:49:37.687Z,2.67
2018-07-12T10:52:07.603Z,2.60
2018-07-12T10:54:37.147Z,3.00
2018-07-12T10:57:06.972Z,2.73
2018-07-12T10:59:37.060Z,2.67
2018-07-12T11:02:07.148Z,3.20
2018-07-12T11:04:37.320Z,3.43
2018-07-12T11:07:07.492Z,2.80
2018-07-12T11:09:37.577Z,2.80
2018-07-12T11:12:07.680Z,3.10
2018-07-12T11:14:37.751Z,2.80
2018-07-12T11:17:07.830Z,3.30
2018-07-12T11:19:38.044Z,3.30
2018-07-12T11:22:08.256Z,2.80
2018-07-12T11:24:38.360Z,2.73
2018-07-12T11:27:08.095Z,3.90
2018-07-12T11:29:51.503Z,3.03
2018-07-12T11:32:21.640Z,2.83
2018-07-12T11:34:52.101Z,2.70
2018-07-12T11:37:24.516Z,3.50
2018-07-12T11:39:54.612Z,3.23
2018-07-12T11:42:24.703Z,2.80
2018-07-12T11:44:54.786Z,3.30
2018-07-12T11:47:24.849Z,2.87
2018-07-12T11:49:54.952Z,3.17
2018-07-12T11:52:25.068Z,3.07
2018-07-12T11:54:55.276Z,3.00
2018-07-12T11:57:25.344Z,2.83
2018-07-12T11:59:55.476Z,2.80
2018-07-12T12:02:25.616Z,2.60
2018-07-12T12:04:55.700Z,2.83
2018-07-12T12:07:25.824Z,2.87
2018-07-12T12:09:55.924Z,3.17
2018-07-12T12:12:26.020Z,3.00
2018-07-12T12:14:56.154Z,2.83
2018-07-12T12:17:26.264Z,3.00
2018-07-12T12:19:56.300Z,2.90
2018-07-12T12:22:26.405Z,2.43
2018-07-12T12:24:56.508Z,2.50
2018-07-12T12:27:26.598Z,4.13
2018-07-12T12:29:56.732Z,2.40
2018-07-12T12:32:26.820Z,2.90
2018-07-12T12:34:56.940Z,2.77
2018-07-12T12:37:27.105Z,3.33
2018-07-12T12:39:57.175Z,2.60
2018-07-12T12:42:27.461Z,2.60
2018-07-12T12:44:57.584Z,2.60
2018-07-12T12:47:28.136Z,2.80
2018-07-12T12:49:58.204Z,2.77
2018-07-12T12:52:28.314Z,3.07
2018-07-12T12:54:58.396Z,3.13
2018-07-12T12:57:28.664Z,2.67
2018-07-12T12:59:58.811Z,3.63
2018-07-12T13:02:28.916Z,3.27
2018-07-12T13:04:58.962Z,3.10
2018-07-12T13:07:29.166Z,3.60
2018-07-12T13:09:59.236Z,3.03
2018-07-12T13:12:29.353Z,3.20
2018-07-12T13:14:59.067Z,3.10
2018-07-12T13:17:28.856Z,2.93
2018-07-12T13:19:58.724Z,3.10
2018-07-12T13:22:28.631Z,3.30
2018-07-12T13:24:58.772Z,2.90
2018-07-12T13:27:28.884Z,2.77
2018-07-12T13:29:59.008Z,3.23
2018-07-12T13:32:29.124Z,3.13
2018-07-12T13:34:59.265Z,2.50
2018-07-12T13:37:29.372Z,3.10
2018-07-12T13:39:59.480Z,3.10
2018-07-12T13:42:29.499Z,3.43
2018-07-12T13:44:59.636Z,3.70
2018-07-12T13:47:29.919Z,3.73
2018-07-12T13:49:59.963Z,4.23
2018-07-12T13:52:30.095Z,3.57
2018-07-12T13:55:00.144Z,3.90
2018-07-12T13:57:30.271Z,3.50
2018-07-12T14:00:00.524Z,4.67
2018-07-12T14:02:30.988Z,3.63
2018-07-12T14:05:01.237Z,6.23
2018-07-12T14:07:31.273Z,4.17
2018-07-12T14:10:01.374Z,4.20
2018-07-12T14:12:31.440Z,3.73
2018-07-12T14:15:01.601Z,4.00
2018-07-12T14:17:31.672Z,3.83
2018-07-12T14:20:01.741Z,4.50
2018-07-12T14:22:31.872Z,4.80
2018-07-12T14:25:02.122Z,4.50
2018-07-12T14:27:32.248Z,4.50
2018-07-12T14:30:02.040Z,4.27
2018-07-12T14:32:32.138Z,4.40
2018-07-12T14:35:02.188Z,3.97
2018-07-12T14:37:32.396Z,4.87
2018-07-12T14:40:02.506Z,4.23
2018-07-12T14:42:32.640Z,4.13
2018-07-12T14:45:02.755Z,4.63
2018-07-12T14:47:32.851Z,5.03
2018-07-12T14:50:02.928Z,4.40
2018-07-12T14:52:33.047Z,4.43
2018-07-12T14:55:03.160Z,5.27
2018-07-12T14:57:33.252Z,5.03
2018-07-12T15:00:03.372Z,4.33
2018-07-12T15:02:33.518Z,4.03
2018-07-12T15:05:03.620Z,4.30
2018-07-12T15:07:33.610Z,5.80
2018-07-12T15:10:03.814Z,4.40
2018-07-12T15:12:33.910Z,4.20
2018-07-12T15:15:04.080Z,4.10
2018-07-12T15:17:34.188Z,3.77
2018-07-12T15:20:04.268Z,3.43
2018-07-12T15:22:34.368Z,3.60
2018-07-12T15:25:04.908Z,3.50
2018-07-12T15:27:35.004Z,3.90
2018-07-12T15:30:05.261Z,3.77
2018-07-12T15:32:35.290Z,3.83
2018-07-12T15:35:05.628Z,3.30
2018-07-12T15:37:35.453Z,3.70
2018-07-12T15:40:05.381Z,3.60
2018-07-12T15:42:35.667Z,3.50
2018-07-12T15:45:05.720Z,3.10
2018-07-12T15:47:36.132Z,3.10
2018-07-12T15:50:05.972Z,3.00
2018-07-12T15:52:35.777Z,3.73
2018-07-12T15:55:06.296Z,3.07
2018-07-12T15:57:36.396Z,3.33
2018-07-12T16:00:06.616Z,3.83
2018-07-12T16:02:36.758Z,3.47
2018-07-12T16:05:07.051Z,3.67
2018-07-12T16:07:37.146Z,3.80
2018-07-12T16:10:07.612Z,3.80
2018-07-12T16:12:37.771Z,3.93
2018-07-12T16:15:07.846Z,3.63
2018-07-12T16:17:37.860Z,3.70
2018-07-12T16:20:07.924Z,3.17
2018-07-12T16:22:37.968Z,3.50
2018-07-12T16:25:08.116Z,3.43
2018-07-12T16:27:38.336Z,3.60
2018-07-12T16:30:08.484Z,3.80
2018-07-12T16:32:38.675Z,3.10
2018-07-12T16:35:08.780Z,3.00
2018-07-12T16:37:38.904Z,5.07
2018-07-12T16:40:09.004Z,4.67
2018-07-12T16:42:39.072Z,5.63
2018-07-12T16:45:09.177Z,5.00
2018-07-12T16:47:39.240Z,4.80
2018-07-12T16:50:09.332Z,4.87
2018-07-12T16:52:39.439Z,5.90
2018-07-12T16:55:09.563Z,5.83
2018-07-12T16:57:39.680Z,5.33
2018-07-12T17:00:09.804Z,5.17
2018-07-12T17:02:40.380Z,5.63
2018-07-12T17:05:10.457Z,5.80
2018-07-12T17:07:40.571Z,5.73
2018-07-12T17:10:10.288Z,5.77
2018-07-12T17:12:40.044Z,6.10
2018-07-12T17:15:10.234Z,5.33
2018-07-12T17:17:40.628Z,5.63
2018-07-12T17:20:10.744Z,5.57
2018-07-12T17:22:40.927Z,5.23
2018-07-12T17:25:11.084Z,5.50
2018-07-12T17:27:41.219Z,5.33
2018-07-12T17:30:11.314Z,5.53
2018-07-12T17:32:41.392Z,6.13
2018-07-12T17:35:11.476Z,5.27
2018-07-12T17:37:41.564Z,5.43
2018-07-12T17:40:11.647Z,8.17
2018-07-12T17:42:41.766Z,10.27
2018-07-12T17:45:12.015Z,5.10
2018-07-12T17:47:42.183Z,5.87
2018-07-12T17:50:12.203Z,5.77
2018-07-12T17:52:42.300Z,6.00
2018-07-12T17:55:12.476Z,6.07
2018-07-12T17:57:42.484Z,5.63
2018-07-12T18:00:12.556Z,6.20
2018-07-12T18:02:42.764Z,5.50
2018-07-12T18:05:12.969Z,6.83
2018-07-12T18:07:43.033Z,5.80
2018-07-12T18:10:13.260Z,5.87
2018-07-12T18:12:52.839Z,5.60
2018-07-12T18:15:22.913Z,6.60
2018-07-12T18:17:53.088Z,6.37
2018-07-12T18:20:23.245Z,6.10
2018-07-12T18:22:53.436Z,6.20
2018-07-12T18:25:24.072Z,6.80
2018-07-12T18:27:54.202Z,5.90
2018-07-12T18:30:23.988Z,6.17
2018-07-12T18:32:53.800Z,6.13
2018-07-12T18:35:23.982Z,6.47
2018-07-12T18:37:54.092Z,6.50
2018-07-12T18:40:24.188Z,6.10
2018-07-12T18:42:54.347Z,6.80
2018-07-12T18:45:24.508Z,6.50
2018-07-12T18:47:54.620Z,6.93
2018-07-12T18:50:24.968Z,6.20
2018-07-12T18:52:55.084Z,6.20
2018-07-12T18:55:25.204Z,8.37
2018-07-12T18:57:55.304Z,6.87
2018-07-12T19:00:25.434Z,6.07
2018-07-12T19:02:55.629Z,6.10
2018-07-12T19:05:25.729Z,6.37
2018-07-12T19:07:55.801Z,6.67
2018-07-12T19:10:25.973Z,6.60
2018-07-12T19:12:56.101Z,6.70
2018-07-12T19:15:26.362Z,6.97
2018-07-12T19:17:56.432Z,6.83
2018-07-12T19:20:26.584Z,6.83
2018-07-12T19:22:56.671Z,6.57
2018-07-12T19:25:27.169Z,6.40
2018-07-12T19:27:56.887Z,6.77
2018-07-12T19:30:26.778Z,6.87
2018-07-12T19:32:56.852Z,7.77
2018-07-12T19:35:26.985Z,6.53
2018-07-12T19:37:57.076Z,6.93
2018-07-12T19:40:26.828Z,7.37
2018-07-12T19:42:56.696Z,6.83
2018-07-12T19:45:26.846Z,7.80
2018-07-12T19:47:56.992Z,8.40
2018-07-12T19:50:27.108Z,6.90
2018-07-12T19:52:57.270Z,7.37
2018-07-12T19:55:27.364Z,8.20
2018-07-12T19:57:57.512Z,7.77
2018-07-12T20:00:27.289Z,7.90
2018-07-12T20:02:57.116Z,7.73
2018-07-12T20:05:27.240Z,7.90
2018-07-12T20:07:57.011Z,7.67
2018-07-12T20:10:26.884Z,7.80
2018-07-12T20:12:56.979Z,7.43
2018-07-12T20:15:27.297Z,7.57
2018-07-12T20:17:57.368Z,8.13
2018-07-12T20:20:27.535Z,7.93
2018-07-12T20:22:57.600Z,7.73
2018-07-12T20:25:27.838Z,7.30
2018-07-12T20:27:57.949Z,8.23
2018-07-12T20:30:28.109Z,7.80
2018-07-12T20:32:58.135Z,8.00
2018-07-12T20:35:28.507Z,7.87
2018-07-12T20:37:58.604Z,8.10
2018-07-12T20:40:28.746Z,8.53
2018-07-12T20:42:58.924Z,7.50
2018-07-12T20:45:29.630Z,8.03
2018-07-12T20:48:00.797Z,8.47
2018-07-12T20:50:30.884Z,7.63
2018-07-12T20:53:01.198Z,8.37
2018-07-12T20:55:31.313Z,8.20
2018-07-12T20:58:01.361Z,8.43
2018-07-12T21:00:31.552Z,8.03
2018-07-12T21:03:02.632Z,8.53
2018-07-12T21:05:33.284Z,7.80
2018-07-12T21:08:03.342Z,8.30
2018-07-12T21:10:33.460Z,8.50
2018-07-12T21:13:04.009Z,8.27
2018-07-12T21:15:34.133Z,8.87
2018-07-12T21:18:04.904Z,9.00
2018-07-12T21:20:35.087Z,8.90
2018-07-12T21:23:05.575Z,8.43
2018-07-12T21:25:35.608Z,8.80
2018-07-12T21:28:05.891Z,8.00
2018-07-12T21:30:36.012Z,8.27
2018-07-12T21:33:06.116Z,8.17
2018-07-12T21:35:36.205Z,8.30
2018-07-12T21:38:06.260Z,8.77
2018-07-12T21:40:36.440Z,8.20
2018-07-12T21:43:06.545Z,8.57
2018-07-12T21:45:36.580Z,7.67
2018-07-12T21:48:06.661Z,8.07
2018-07-12T21:50:36.716Z,7.63
2018-07-12T21:53:07.005Z,8.37
2018-07-12T21:55:37.080Z,7.57
2018-07-12T21:58:07.184Z,8.30
2018-07-12T22:00:37.300Z,8.63
2018-07-12T22:03:07.505Z,8.77
2018-07-12T22:05:37.782Z,8.37
2018-07-12T22:08:14.681Z,8.10
2018-07-12T22:10:45.544Z,8.50
2018-07-12T22:13:16.211Z,8.70
2018-07-12T22:15:46.304Z,8.67
2018-07-12T22:18:16.388Z,9.10
2018-07-12T22:20:46.432Z,8.40
2018-07-12T22:23:16.489Z,8.03
2018-07-12T22:25:46.668Z,9.33
2018-07-12T22:28:16.733Z,8.50
2018-07-12T22:30:46.663Z,8.97
2018-07-12T22:33:16.537Z,8.47
2018-07-12T22:35:46.632Z,8.47
2018-07-12T22:38:16.628Z,9.33
2018-07-12T22:40:46.684Z,8.53
2018-07-12T22:43:16.767Z,8.57
2018-07-12T22:45:46.905Z,8.67
2018-07-12T22:48:17.047Z,8.53
2018-07-12T22:50:47.067Z,9.03
2018-07-12T22:53:17.128Z,9.50
2018-07-12T22:55:47.219Z,8.87
2018-07-12T22:58:17.567Z,8.80
2018-07-12T23:00:47.644Z,8.47
2018-07-12T23:03:17.744Z,9.13
2018-07-12T23:05:47.832Z,9.47
2018-07-12T23:08:17.925Z,9.53
2018-07-12T23:10:48.084Z,8.53
2018-07-12T23:13:18.152Z,9.13
2018-07-12T23:15:48.221Z,9.40
2018-07-12T23:18:18.291Z,9.10
2018-07-12T23:20:48.304Z,9.23
2018-07-12T23:23:18.388Z,9.67
2018-07-12T23:25:48.456Z,9.17
2018-07-12T23:28:18.629Z,8.87
2018-07-12T23:30:48.781Z,8.43
2018-07-12T23:33:18.563Z,9.40
2018-07-12T23:35:48.440Z,9.30
2018-07-12T23:38:18.505Z,8.70
2018-07-12T23:40:48.632Z,9.70
2018-07-12T23:43:18.736Z,8.97
2018-07-12T23:45:48.816Z,9.17
2018-07-12T23:48:18.891Z,9.20
2018-07-12T23:50:48.956Z,10.10
2018-07-12T23:53:19.008Z,9.37
2018-07-12T23:55:49.161Z,9.57
2018-07-12T23:58:19.278Z,10.00
